Tuesday, January 22, 2019, 4:01 PM EST
Back to Local

KDUJ, Du Bois-jefferson County

Location: Reynoldsville, PA, United States Lat: 41.183
Local Time: 4:01 PM EST (21:01 GMT) Lon: -78.883
Time Zone: US/Eastern Elev: 1820 ft

Show me the last for .
Show Coded

Time T Td Feel RH Dir Speed Gust Alt SLP Vis Weather Sky Remarks
2019-01-22 14:53 23 9 14 54 130° 8 - 30.37 30.47 10 CLR None
2019-01-22 13:53 21 8 11 56 120° 9 - 30.38 30.49 10 CLR None
2019-01-22 12:53 18 5 6 56 130° 10 - 30.42 30.53 10 SCT080 6-hr Min Temp (1pm): -5.1°F
6-hr Max Temp (1pm): 18.0°F
2019-01-22 11:53 14 5 1 66 120° 10 - 30.46 30.58 10 OVC085 None
2019-01-22 10:53 8 1 -7 72 110° 12 - 30.49 30.62 10 OVC110 None
2019-01-22 09:53 5 1 -7 83 110° 7 - 30.50 30.63 10 CLR None
2019-01-22 08:53 0 -5 -14 78 90° 8 - 30.49 30.62 10 CLR None
2019-01-22 07:53 -2 -6 -12 82 160° 5 - 30.51 30.65 10 CLR None
2019-01-22 06:53 -4 -8 -18 82 90° 7 - 30.50 30.64 10 CLR 6-hr Min Temp (7am): -5.1°F
6-hr Max Temp (7am): 1.9°F
2019-01-22 05:53 -1 -7 - 74 - Calm - 30.51 30.65 10 FEW011 None
2019-01-22 04:53 -4 -9 -15 78 230° 5 - 30.50 30.64 10 CLR None
2019-01-22 03:53 0 -5 -10 78 110° 5 - 30.47 30.60 10 CLR None
2019-01-22 02:53 1 -3 -9 82 270° 5 - 30.49 30.62 10 CLR None
2019-01-22 01:53 0 -3 -13 87 260° 7 - 30.48 30.62 10 CLR None
2019-01-22 00:53 2 -2 -11 82 260° 7 - 30.46 30.59 10 CLR 6-hr Min Temp (1am): -0.0°F
6-hr Max Temp (1am): 6.1°F
2019-01-21 23:53 1 -2 -7 86 230° 3 - 30.44 30.58 10 SCT018 24-hr Min Temp (12am): -4.0°F
24-hr Max Temp (12am): 8.1°F
2019-01-21 23:45 1 -3 -9 82 230° 5 - 30.44 - 10 SCT018 None
2019-01-21 23:28 4 -1 -5 79 250° 5 - 30.44 - 10 BKN018 None
2019-01-21 22:53 4 -1 -7 79 290° 6 - 30.43 30.56 10 FEW020 None
2019-01-21 21:53 4 -2 -7 75 270° 6 - 30.44 30.58 10 CLR None
2019-01-21 21:19 5 -1 -9 75 280° 9 - 30.43 - 10 SCT023 None
2019-01-21 20:53 6 -2 -10 68 280° 13 - 30.43 30.57 10 BKN023 None
2019-01-21 19:53 5 -3 -9 68 300° 9 - 30.41 30.55 10 BKN021 None
2019-01-21 19:07 4 -4 -9 68 300° 8 - 30.40 - 10 BKN022 None
2019-01-21 18:53 4 -4 -12 68 310° 12 - 30.40 30.54 10 FEW022 6-hr Min Temp (7pm): 3.9°F
6-hr Max Temp (7pm): 8.1°F
2019-01-21 17:53 5 -7 -11 56 290° 12 - 30.37 30.51 10 CLR None
2019-01-21 16:53 7 -7 -12 51 280° 13 18 30.35 30.49 10 CLR None

Support USWX by starting your Amazon purchase here.